Time,TemperatureF,DewpointF,PressureIn,WindDirection,WindDirectionDegrees,WindSpeedMPH,WindSpeedGustMPH,Humidity,HourlyPrecipIn,Conditions,Clouds,dailyrainin,SolarRadiationWatts/m^2,SoftwareType,DateUTC
2013-03-25 00:15:00,32.4,24.0,29.75,East,96,6.0,10.0,70,0.00,,,0.00,0,weatherlink.com 1.10,2013-03-25 04:15:00,
2013-03-25 00:47:00,31.9,23.0,29.74,East,98,3.0,9.0,71,0.00,,,0.00,0,weatherlink.com 1.10,2013-03-25 04:47:00,
2013-03-25 01:03:00,31.5,23.0,29.73,East,87,6.0,9.0,72,0.00,,,0.00,0,weatherlink.com 1.10,2013-03-25 05:03:00,
2013-03-25 01:18:00,31.3,23.0,29.73,ENE,65,2.0,9.0,72,0.00,,,0.00,0,weatherlink.com 1.10,2013-03-25 05:18:00,
2013-03-25 01:35:00,31.1,23.0,29.73,East,84,3.0,8.0,73,0.00,,,0.00,0,weatherlink.com 1.10,2013-03-25 05:35:00,
2013-03-25 02:07:00,30.6,23.0,29.73,ENE,76,3.0,5.0,74,0.00,,,0.00,0,weatherlink.com 1.10,2013-03-25 06:07:00,
2013-03-25 02:23:00,30.5,23.0,29.72,East,85,3.0,7.0,75,0.00,,,0.00,0,weatherlink.com 1.10,2013-03-25 06:23:00,
2013-03-25 02:39:00,30.5,23.0,29.72,East,90,7.0,8.0,75,0.00,,,0.00,0,weatherlink.com 1.10,2013-03-25 06:39:00,
2013-03-25 02:56:00,30.3,23.0,29.71,East,94,6.0,7.0,75,0.00,,,0.00,0,weatherlink.com 1.10,2013-03-25 06:56:00,
2013-03-25 03:27:00,30.1,23.0,29.71,East,81,6.0,9.0,76,0.00,,,0.00,0,weatherlink.com 1.10,2013-03-25 07:27:00,
2013-03-25 03:43:00,29.9,23.0,29.70,East,86,2.0,7.0,76,0.00,,,0.00,0,weatherlink.com 1.10,2013-03-25 07:43:00,
2013-03-25 04:00:00,29.8,23.0,29.69,East,86,5.0,8.0,76,0.00,,,0.00,0,weatherlink.com 1.10,2013-03-25 08:00:00,
2013-03-25 04:32:00,29.7,23.0,29.69,ESE,103,5.0,7.0,77,0.00,,,0.00,0,weatherlink.com 1.10,2013-03-25 08:32:00,
2013-03-25 04:48:00,29.7,23.0,29.68,ENE,78,5.0,9.0,77,0.00,,,0.00,0,weatherlink.com 1.10,2013-03-25 08:48:00,
2013-03-25 05:04:00,29.7,23.0,29.67,ESE,102,7.0,10.0,77,0.00,,,0.00,0,weatherlink.com 1.10,2013-03-25 09:04:00,
2013-03-25 05:21:00,29.5,23.0,29.67,East,87,6.0,9.0,77,0.00,,,0.00,0,weatherlink.com 1.10,2013-03-25 09:21:00,
2013-03-25 05:36:00,29.2,23.0,29.67,East,86,3.0,9.0,77,0.00,,,0.00,0,weatherlink.com 1.10,2013-03-25 09:36:00,
2013-03-25 05:52:00,29.1,23.0,29.67,ENE,57,3.0,7.0,78,0.00,,,0.00,0,weatherlink.com 1.10,2013-03-25 09:52:00,
2013-03-25 06:08:00,28.8,23.0,29.67,East,101,6.0,7.0,78,0.00,,,0.00,0,weatherlink.com 1.10,2013-03-25 10:08:00,
2013-03-25 06:24:00,28.9,23.0,29.67,East,89,7.0,9.0,78,0.00,,,0.00,0,weatherlink.com 1.10,2013-03-25 10:24:00,
2013-03-25 06:40:00,29.0,23.0,29.67,East,84,6.0,8.0,79,0.00,,,0.00,0,weatherlink.com 1.10,2013-03-25 10:40:00,
2013-03-25 06:57:00,29.1,23.0,29.67,East,88,5.0,9.0,78,0.00,,,0.00,11,weatherlink.com 1.10,2013-03-25 10:57:00,
2013-03-25 07:12:00,29.3,23.0,29.68,East,100,5.0,9.0,78,0.00,,,0.00,16,weatherlink.com 1.10,2013-03-25 11:12:00,
2013-03-25 07:28:00,29.7,24.0,29.68,NNE,26,1.0,9.0,78,0.00,,,0.00,32,weatherlink.com 1.10,2013-03-25 11:28:00,
2013-03-25 07:45:00,30.2,24.0,29.67,East,81,5.0,9.0,78,0.00,,,0.00,58,weatherlink.com 1.10,2013-03-25 11:45:00,
2013-03-25 08:06:00,31.2,25.0,29.67,East,98,6.0,10.0,77,0.00,,,0.00,114,weatherlink.com 1.10,2013-03-25 12:06:00,
2013-03-25 08:17:00,31.7,25.0,29.66,East,84,5.0,10.0,76,0.00,,,0.00,139,weatherlink.com 1.10,2013-03-25 12:17:00,
2013-03-25 08:33:00,32.9,26.0,29.66,ENE,70,7.0,11.0,75,0.00,,,0.00,267,weatherlink.com 1.10,2013-03-25 12:33:00,
2013-03-25 08:49:00,34.4,26.0,29.66,East,95,8.0,13.0,71,0.00,,,0.00,202,weatherlink.com 1.10,2013-03-25 12:49:00,
2013-03-25 09:05:00,34.3,25.0,29.65,East,88,7.0,15.0,70,0.00,,,0.00,204,weatherlink.com 1.10,2013-03-25 13:05:00,
2013-03-25 09:21:00,36.2,26.0,29.64,ENE,76,10.0,18.0,67,0.00,,,0.00,330,weatherlink.com 1.10,2013-03-25 13:21:00,
2013-03-25 09:37:00,35.7,26.0,29.64,ENE,69,12.0,21.0,68,0.00,,,0.00,251,weatherlink.com 1.10,2013-03-25 13:37:00,
2013-03-25 09:53:00,36.4,27.0,29.64,East,94,6.0,13.0,68,0.00,,,0.00,367,weatherlink.com 1.10,2013-03-25 13:53:00,
2013-03-25 10:09:00,37.2,27.0,29.64,ESE,121,9.0,15.0,67,0.00,,,0.00,336,weatherlink.com 1.10,2013-03-25 14:09:00,
2013-03-25 10:25:00,37.2,27.0,29.64,ESE,120,4.0,14.0,68,0.00,,,0.00,374,weatherlink.com 1.10,2013-03-25 14:25:00,
2013-03-25 10:42:00,37.9,27.0,29.63,SE,128,5.0,15.0,65,0.00,,,0.00,373,weatherlink.com 1.10,2013-03-25 14:42:00,
2013-03-25 10:58:00,39.2,27.0,29.63,East,98,3.0,13.0,63,0.00,,,0.00,519,weatherlink.com 1.10,2013-03-25 14:58:00,
2013-03-25 11:13:00,39.7,28.0,29.62,East,98,1.0,13.0,63,0.00,,,0.00,522,weatherlink.com 1.10,2013-03-25 15:13:00,
2013-03-25 11:30:00,41.5,28.0,29.61,ESE,119,13.0,18.0,60,0.00,,,0.00,789,weatherlink.com 1.10,2013-03-25 15:30:00,
2013-03-25 12:02:00,40.2,28.0,29.59,East,101,9.0,16.0,61,0.00,,,0.00,434,weatherlink.com 1.10,2013-03-25 16:02:00,
2013-03-25 12:18:00,41.0,29.0,29.59,SE,129,11.0,15.0,62,0.00,,,0.00,464,weatherlink.com 1.10,2013-03-25 16:18:00,
2013-03-25 12:35:00,40.7,29.0,29.58,East,82,5.0,15.0,63,0.00,,,0.00,404,weatherlink.com 1.10,2013-03-25 16:35:00,
2013-03-25 12:50:00,40.9,27.0,29.57,East,88,13.0,19.0,59,0.00,,,0.00,411,weatherlink.com 1.10,2013-03-25 16:50:00,
2013-03-25 13:06:00,40.7,27.0,29.56,ESE,123,5.0,17.0,58,0.00,,,0.00,334,weatherlink.com 1.10,2013-03-25 17:06:00,
2013-03-25 13:22:00,40.7,27.0,29.56,ESE,111,11.0,19.0,58,0.00,,,0.00,278,weatherlink.com 1.10,2013-03-25 17:22:00,
2013-03-25 13:38:00,41.5,27.0,29.55,East,90,7.0,22.0,56,0.00,,,0.00,410,weatherlink.com 1.10,2013-03-25 17:38:00,
2013-03-25 13:54:00,40.8,26.0,29.54,ESE,108,5.0,22.0,57,0.00,,,0.00,281,weatherlink.com 1.10,2013-03-25 17:54:00,
2013-03-25 14:11:00,40.5,27.0,29.52,East,93,8.0,16.0,58,0.00,,,0.00,171,weatherlink.com 1.10,2013-03-25 18:11:00,
2013-03-25 14:26:00,40.2,27.0,29.51,SE,127,6.0,19.0,59,0.00,,,0.00,223,weatherlink.com 1.10,2013-03-25 18:26:00,
2013-03-25 14:42:00,40.4,26.0,29.49,East,88,7.0,19.0,58,0.00,,,0.00,311,weatherlink.com 1.10,2013-03-25 18:42:00,
2013-03-25 14:58:00,40.2,27.0,29.48,SE,135,13.0,19.0,60,0.00,,,0.00,239,weatherlink.com 1.10,2013-03-25 18:58:00,
2013-03-25 15:15:00,39.1,28.0,29.48,ESE,102,9.0,22.0,64,0.00,,,0.00,118,weatherlink.com 1.10,2013-03-25 19:15:00,
2013-03-25 15:31:00,39.0,28.0,29.48,SE,126,5.0,23.0,66,0.00,,,0.00,262,weatherlink.com 1.10,2013-03-25 19:31:00,
2013-03-25 15:47:00,39.3,28.0,29.48,East,94,16.0,16.0,64,0.00,,,0.00,109,weatherlink.com 1.10,2013-03-25 19:47:00,
2013-03-25 16:02:00,38.2,28.0,29.49,East,93,15.0,17.0,66,0.00,,,0.00,70,weatherlink.com 1.10,2013-03-25 20:02:00,
2013-03-25 16:19:00,37.7,28.0,29.49,ENE,71,9.0,18.0,68,0.00,,,0.00,76,weatherlink.com 1.10,2013-03-25 20:19:00,
2013-03-25 16:35:00,37.9,28.0,29.49,ESE,105,4.0,13.0,67,0.00,,,0.00,93,weatherlink.com 1.10,2013-03-25 20:35:00,
2013-03-25 16:51:00,37.8,28.0,29.49,East,84,9.0,11.0,67,0.00,,,0.00,40,weatherlink.com 1.10,2013-03-25 20:51:00,
2013-03-25 17:07:00,37.4,28.0,29.49,ENE,71,7.0,14.0,68,0.00,,,0.00,35,weatherlink.com 1.10,2013-03-25 21:07:00,
2013-03-25 17:23:00,37.3,27.0,29.49,ENE,60,5.0,19.0,67,0.00,,,0.00,40,weatherlink.com 1.10,2013-03-25 21:23:00,
2013-03-25 17:38:00,37.2,27.0,29.49,East,81,5.0,17.0,67,0.00,,,0.00,30,weatherlink.com 1.10,2013-03-25 21:38:00,
2013-03-25 17:55:00,37.0,27.0,29.50,ENE,66,10.0,18.0,68,0.00,,,0.00,32,weatherlink.com 1.10,2013-03-25 21:55:00,
2013-03-25 18:11:00,36.8,27.0,29.50,ENE,67,8.0,17.0,68,0.00,,,0.00,16,weatherlink.com 1.10,2013-03-25 22:11:00,
2013-03-25 18:27:00,36.5,27.0,29.51,East,101,5.0,7.0,68,0.00,,,0.00,16,weatherlink.com 1.10,2013-03-25 22:27:00,
2013-03-25 18:43:00,36.5,26.0,29.51,ENE,64,8.0,16.0,67,0.00,,,0.00,12,weatherlink.com 1.10,2013-03-25 22:43:00,
2013-03-25 19:00:00,36.3,26.0,29.52,East,88,7.0,9.0,67,0.00,,,0.00,0,weatherlink.com 1.10,2013-03-25 23:00:00,
2013-03-25 19:16:00,36.1,26.0,29.52,NE,40,4.0,12.0,67,0.00,,,0.00,0,weatherlink.com 1.10,2013-03-25 23:16:00,
2013-03-25 19:32:00,36.0,26.0,29.52,ENE,59,8.0,10.0,67,0.00,,,0.00,0,weatherlink.com 1.10,2013-03-25 23:32:00,
2013-03-25 19:47:00,36.0,26.0,29.53,ENE,63,8.0,11.0,66,0.00,,,0.00,0,weatherlink.com 1.10,2013-03-25 23:47:00,
2013-03-25 20:03:00,35.9,26.0,29.54,ESE,102,9.0,13.0,67,0.00,,,0.00,0,weatherlink.com 1.10,2013-03-26 00:03:00,
2013-03-25 20:19:00,35.7,26.0,29.54,East,96,3.0,10.0,69,0.00,,,0.00,0,weatherlink.com 1.10,2013-03-26 00:19:00,
2013-03-25 20:36:00,35.5,26.0,29.55,East,97,3.0,9.0,69,0.00,,,0.00,0,weatherlink.com 1.10,2013-03-26 00:36:00,
2013-03-25 20:52:00,35.3,27.0,29.56,ESE,104,4.0,12.0,71,0.00,,,0.00,0,weatherlink.com 1.10,2013-03-26 00:52:00,
2013-03-25 21:08:00,35.2,27.0,29.56,ENE,69,5.0,15.0,71,0.00,,,0.00,0,weatherlink.com 1.10,2013-03-26 01:08:00,
2013-03-25 21:23:00,35.2,27.0,29.56,East,82,6.0,11.0,71,0.00,,,0.00,0,weatherlink.com 1.10,2013-03-26 01:23:00,
2013-03-25 21:39:00,35.2,27.0,29.57,East,86,0.0,13.0,71,0.00,,,0.00,0,weatherlink.com 1.10,2013-03-26 01:39:00,
2013-03-25 21:56:00,35.1,27.0,29.57,East,80,7.0,14.0,71,0.00,,,0.00,0,weatherlink.com 1.10,2013-03-26 01:56:00,
2013-03-25 22:12:00,35.1,27.0,29.57,ENE,70,5.0,13.0,71,0.00,,,0.00,0,weatherlink.com 1.10,2013-03-26 02:12:00,
2013-03-25 22:28:00,35.1,27.0,29.57,NE,41,8.0,20.0,71,0.00,,,0.00,0,weatherlink.com 1.10,2013-03-26 02:28:00,
2013-03-25 22:44:00,35.0,26.0,29.57,East,88,9.0,15.0,71,0.00,,,0.00,0,weatherlink.com 1.10,2013-03-26 02:44:00,
2013-03-25 23:00:00,35.0,27.0,29.57,ENE,59,17.0,17.0,73,0.00,,,0.00,0,weatherlink.com 1.10,2013-03-26 03:00:00,
2013-03-25 23:17:00,34.8,27.0,29.57,East,85,1.0,10.0,73,0.00,,,0.00,0,weatherlink.com 1.10,2013-03-26 03:17:00,
2013-03-25 23:32:00,34.7,27.0,29.57,NE,49,5.0,11.0,73,0.00,,,0.00,0,weatherlink.com 1.10,2013-03-26 03:32:00,
2013-03-25 23:48:00,34.7,27.0,29.58,NE,34,4.0,9.0,72,0.00,,,0.00,0,weatherlink.com 1.10,2013-03-26 03:48:00,